createdAt,value
2023-05-24T00:00:33.386Z,26.30
2023-05-24T00:03:05.319Z,30.98
2023-05-24T00:05:40.035Z,31.30
2023-05-24T00:08:11.612Z,28.70
2023-05-24T00:10:42.374Z,25.85
2023-05-24T00:13:13.110Z,32.08
2023-05-24T00:15:43.504Z,37.80
2023-05-24T00:18:13.876Z,28.07
2023-05-24T00:20:44.384Z,32.70
2023-05-24T00:23:15.138Z,27.50
2023-05-24T00:25:45.253Z,36.42
2023-05-24T00:28:15.594Z,27.75
2023-05-24T00:30:46.031Z,26.23
2023-05-24T00:33:16.441Z,29.47
2023-05-24T00:35:46.757Z,33.20
2023-05-24T00:38:17.301Z,29.20
2023-05-24T00:40:48.002Z,29.07
2023-05-24T00:43:19.162Z,25.77
2023-05-24T00:45:49.582Z,30.75
2023-05-24T00:48:20.055Z,30.37
2023-05-24T00:50:52.968Z,30.75
2023-05-24T00:53:24.250Z,30.23
2023-05-24T00:58:29.544Z,27.95
2023-05-24T01:01:04.632Z,28.77
2023-05-24T01:03:36.283Z,26.17
2023-05-24T01:06:09.666Z,30.08
2023-05-24T01:08:42.669Z,28.13
2023-05-24T01:11:20.715Z,27.83
2023-05-24T01:13:56.498Z,29.80
2023-05-24T01:16:49.024Z,23.92
2023-05-24T01:19:37.776Z,22.45
2023-05-24T01:22:36.166Z,24.15
2023-05-24T01:25:13.515Z,26.08
2023-05-24T01:27:45.782Z,21.63
2023-05-24T01:30:16.900Z,23.08
2023-05-24T01:32:47.519Z,25.85
2023-05-24T01:35:17.890Z,19.85
2023-05-24T01:37:48.256Z,20.67
2023-05-24T01:40:19.244Z,21.00
2023-05-24T01:42:59.817Z,21.48
2023-05-24T01:48:44.276Z,20.73
2023-05-24T01:51:18.626Z,19.10
2023-05-24T01:53:52.009Z,21.55
2023-05-24T01:56:24.321Z,21.92
2023-05-24T01:58:59.441Z,21.73
2023-05-24T02:01:30.540Z,18.33
2023-05-24T02:04:02.870Z,23.45
2023-05-24T02:06:33.260Z,20.83
2023-05-24T02:09:03.790Z,22.67
2023-05-24T02:11:34.021Z,20.70
2023-05-24T02:14:04.284Z,22.80
2023-05-24T02:16:35.650Z,25.40
2023-05-24T02:19:06.182Z,19.20
2023-05-24T02:21:36.327Z,18.05
2023-05-24T02:24:06.946Z,19.20
2023-05-24T02:26:37.317Z,18.77
2023-05-24T02:29:09.896Z,19.80
2023-05-24T02:31:41.415Z,21.05
2023-05-24T02:34:11.950Z,18.73
2023-05-24T02:36:42.329Z,20.83
2023-05-24T02:39:12.990Z,20.17
2023-05-24T02:41:43.655Z,22.55
2023-05-24T02:44:14.475Z,21.08
2023-05-24T02:46:44.942Z,21.15
2023-05-24T02:49:15.566Z,22.63
2023-05-24T02:51:46.302Z,18.10
2023-05-24T02:54:16.802Z,19.35
2023-05-24T02:56:47.312Z,22.53
2023-05-24T02:59:19.997Z,19.02
2023-05-24T03:01:51.652Z,19.00
2023-05-24T03:04:22.079Z,19.87
2023-05-24T03:06:52.415Z,20.20
2023-05-24T03:09:22.932Z,20.42
2023-05-24T03:11:55.270Z,17.20
2023-05-24T03:14:27.419Z,21.13
2023-05-24T03:16:59.595Z,21.90
2023-05-24T03:19:30.424Z,23.20
2023-05-24T03:22:01.033Z,17.63
2023-05-24T03:24:31.431Z,23.35
2023-05-24T03:27:05.006Z,19.77
2023-05-24T03:29:35.440Z,20.23
2023-05-24T03:32:06.706Z,17.40
2023-05-24T03:34:37.179Z,17.13
2023-05-24T03:37:08.101Z,20.13
2023-05-24T03:39:40.392Z,22.38
2023-05-24T03:42:36.959Z,16.65
2023-05-24T03:45:12.068Z,18.58
2023-05-24T03:47:42.572Z,16.85
2023-05-24T03:50:13.270Z,20.07
2023-05-24T03:52:44.829Z,17.42
2023-05-24T03:55:15.214Z,20.60
2023-05-24T03:57:45.634Z,17.97
2023-05-24T04:00:16.521Z,17.08
2023-05-24T04:02:50.789Z,18.92
2023-05-24T04:05:21.233Z,18.67
2023-05-24T04:07:51.681Z,17.93
2023-05-24T04:10:22.375Z,17.03
2023-05-24T04:12:53.068Z,16.85
2023-05-24T04:15:23.741Z,20.57
2023-05-24T04:17:57.985Z,20.92
2023-05-24T04:20:30.153Z,17.70
2023-05-24T04:23:01.358Z,23.75
2023-05-24T04:25:32.525Z,20.65
2023-05-24T04:28:07.558Z,20.33
2023-05-24T04:30:39.209Z,21.75
2023-05-24T04:33:10.709Z,21.30
2023-05-24T04:35:43.151Z,19.15
2023-05-24T04:38:16.187Z,19.70
2023-05-24T04:40:46.524Z,20.45
2023-05-24T04:43:17.009Z,26.63
2023-05-24T04:45:47.229Z,18.88
2023-05-24T04:48:17.745Z,16.67
2023-05-24T04:50:48.056Z,19.00
2023-05-24T04:53:18.538Z,23.83
2023-05-24T04:55:49.270Z,20.60
2023-05-24T04:58:20.227Z,17.65
2023-05-24T05:00:50.784Z,21.05
2023-05-24T05:03:21.343Z,17.57
2023-05-24T05:05:52.270Z,17.35
2023-05-24T05:08:23.144Z,17.87
2023-05-24T05:10:53.437Z,20.00
2023-05-24T05:13:23.908Z,17.57
2023-05-24T05:15:54.204Z,16.88
2023-05-24T05:18:24.663Z,21.57
2023-05-24T05:20:54.845Z,23.23
2023-05-24T05:23:25.181Z,18.90
2023-05-24T05:25:55.500Z,22.27
2023-05-24T05:28:25.856Z,22.23
2023-05-24T05:30:59.272Z,19.57
2023-05-24T05:33:29.617Z,18.40
2023-05-24T05:35:59.974Z,20.13
2023-05-24T05:38:30.257Z,19.43
2023-05-24T05:41:00.522Z,19.85
2023-05-24T05:43:31.516Z,20.88
2023-05-24T05:46:03.406Z,20.42
2023-05-24T05:48:33.768Z,19.67
2023-05-24T05:51:04.206Z,18.60
2023-05-24T05:53:37.066Z,21.03
2023-05-24T05:56:07.591Z,18.92
2023-05-24T05:58:37.877Z,23.43
2023-05-24T06:01:08.256Z,22.63
2023-05-24T06:03:38.915Z,22.10
2023-05-24T06:06:11.288Z,18.65
2023-05-24T06:08:43.205Z,22.10
2023-05-24T06:11:13.541Z,24.08
2023-05-24T06:13:43.937Z,22.75
2023-05-24T06:16:14.240Z,22.00
2023-05-24T06:18:57.172Z,23.10
2023-05-24T06:21:32.586Z,23.27
2023-05-24T06:24:04.856Z,24.33
2023-05-24T06:26:35.262Z,23.58
2023-05-24T06:29:05.560Z,19.27
2023-05-24T06:31:35.884Z,20.17
2023-05-24T06:34:06.392Z,17.20
2023-05-24T06:36:38.282Z,19.23
2023-05-24T06:39:08.615Z,20.48
2023-05-24T06:41:39.786Z,25.17
2023-05-24T06:44:10.071Z,17.80
2023-05-24T06:46:40.381Z,20.95
2023-05-24T06:49:11.007Z,21.87
2023-05-24T06:51:41.382Z,20.20
2023-05-24T06:54:13.021Z,22.37
2023-05-24T06:56:43.319Z,19.05
2023-05-24T06:59:13.678Z,20.08
2023-05-24T07:01:45.341Z,16.97
2023-05-24T07:04:16.030Z,19.30
2023-05-24T07:06:46.301Z,19.38
2023-05-24T07:09:16.787Z,22.77
2023-05-24T07:11:47.237Z,18.07
2023-05-24T07:14:17.870Z,22.30
2023-05-24T07:16:49.155Z,22.37
2023-05-24T07:19:19.679Z,23.67
2023-05-24T07:21:49.867Z,19.27
2023-05-24T07:24:20.360Z,19.40
2023-05-24T07:26:50.674Z,25.13
2023-05-24T07:29:21.113Z,17.92
2023-05-24T07:31:51.337Z,20.90
2023-05-24T07:34:24.064Z,20.50
2023-05-24T07:36:54.343Z,19.98
2023-05-24T07:39:25.729Z,18.37
2023-05-24T07:41:57.006Z,20.02
2023-05-24T07:44:27.439Z,19.55
2023-05-24T07:46:58.192Z,18.07
2023-05-24T07:49:28.693Z,22.02
2023-05-24T07:52:01.977Z,18.17
2023-05-24T07:54:32.307Z,22.48
2023-05-24T07:57:02.702Z,18.13
2023-05-24T07:59:33.098Z,18.03
2023-05-24T08:02:07.836Z,20.83
2023-05-24T08:04:38.297Z,20.38
2023-05-24T08:07:10.877Z,21.00
2023-05-24T08:09:41.427Z,22.83
2023-05-24T08:12:11.765Z,22.85
2023-05-24T08:14:42.052Z,19.20
2023-05-24T08:17:12.397Z,25.55
2023-05-24T08:19:42.701Z,19.13
2023-05-24T08:22:12.802Z,22.30
2023-05-24T08:24:43.228Z,19.60
2023-05-24T08:27:14.283Z,27.73
2023-05-24T08:29:44.559Z,21.92
2023-05-24T08:32:14.888Z,23.73
2023-05-24T08:34:45.116Z,20.48
2023-05-24T08:37:17.754Z,20.80
2023-05-24T08:39:48.277Z,24.48
2023-05-24T08:42:19.738Z,21.98
2023-05-24T08:45:07.444Z,19.23
2023-05-24T08:47:39.750Z,20.13
2023-05-24T08:50:11.124Z,18.15
2023-05-24T08:52:43.197Z,17.40
2023-05-24T08:55:14.023Z,22.50
2023-05-24T08:57:45.044Z,22.92
2023-05-24T09:00:16.317Z,21.85
2023-05-24T09:02:48.813Z,17.90
2023-05-24T09:05:19.784Z,22.67
2023-05-24T09:10:26.903Z,19.85
2023-05-24T09:13:00.905Z,18.83
2023-05-24T09:15:31.794Z,18.38
2023-05-24T09:18:02.098Z,21.00
2023-05-24T09:20:33.502Z,17.57
2023-05-24T09:23:07.300Z,19.98
2023-05-24T09:25:37.802Z,19.20
2023-05-24T09:28:11.603Z,18.47
2023-05-24T09:30:42.198Z,19.63
2023-05-24T09:33:13.912Z,19.25
2023-05-24T09:35:48.864Z,22.38
2023-05-24T09:38:22.415Z,20.35
2023-05-24T09:41:10.690Z,17.73
2023-05-24T09:43:52.159Z,18.52
2023-05-24T09:46:22.774Z,19.88
2023-05-24T09:49:05.905Z,19.50
2023-05-24T09:51:41.673Z,23.13
2023-05-24T09:54:12.268Z,21.73
2023-05-24T09:56:43.078Z,22.88
2023-05-24T09:59:13.575Z,23.35
2023-05-24T10:01:44.081Z,22.00
2023-05-24T10:04:15.085Z,23.33
2023-05-24T10:06:46.388Z,26.88
2023-05-24T10:11:48.333Z,22.53
2023-05-24T10:14:20.597Z,22.52
2023-05-24T10:16:50.929Z,26.95
2023-05-24T10:19:21.137Z,29.27
2023-05-24T10:21:52.583Z,24.10
2023-05-24T10:24:28.801Z,22.83
2023-05-24T10:27:01.235Z,26.65
2023-05-24T10:29:53.814Z,27.65
2023-05-24T10:32:27.012Z,22.40
2023-05-24T10:34:58.022Z,22.88
2023-05-24T10:37:32.613Z,21.90
2023-05-24T10:40:03.634Z,22.35
2023-05-24T10:42:35.661Z,21.45
2023-05-24T10:45:24.316Z,21.23
2023-05-24T10:47:55.820Z,21.08
2023-05-24T10:50:26.410Z,26.90
2023-05-24T10:53:15.539Z,20.60
2023-05-24T10:55:57.683Z,25.90
2023-05-24T10:58:48.644Z,25.23
2023-05-24T11:01:34.378Z,22.05
2023-05-24T11:04:21.699Z,21.88
2023-05-24T11:07:06.359Z,21.70
2023-05-24T11:09:37.329Z,21.80
2023-05-24T11:12:11.799Z,19.30
2023-05-24T11:14:42.861Z,23.30
2023-05-24T11:17:13.202Z,20.77
2023-05-24T11:19:55.230Z,24.17
2023-05-24T11:22:27.881Z,20.58
2023-05-24T11:25:00.293Z,24.40
2023-05-24T11:27:31.338Z,18.30
2023-05-24T11:30:02.158Z,20.00
2023-05-24T11:32:32.475Z,27.20
2023-05-24T11:35:03.250Z,24.53
2023-05-24T11:37:45.554Z,21.60
2023-05-24T11:40:18.654Z,27.45
2023-05-24T11:42:53.139Z,19.17
2023-05-24T11:45:24.418Z,20.90
2023-05-24T11:50:28.815Z,22.02
2023-05-24T11:53:06.041Z,20.77
2023-05-24T11:55:37.455Z,25.10
2023-05-24T11:58:14.202Z,22.15
2023-05-24T12:00:45.864Z,18.63
2023-05-24T12:03:16.347Z,27.38
2023-05-24T12:05:47.584Z,21.77
2023-05-24T12:08:18.261Z,21.58
2023-05-24T12:10:51.163Z,12.55
2023-05-24T12:13:26.497Z,19.33
2023-05-24T12:15:58.386Z,21.20
2023-05-24T12:18:29.920Z,15.65
2023-05-24T12:21:00.503Z,18.58
2023-05-24T12:23:32.036Z,14.50
2023-05-24T12:26:02.946Z,12.88
2023-05-24T12:28:41.663Z,15.25
2023-05-24T12:31:12.422Z,11.82
2023-05-24T12:33:42.780Z,8.38
2023-05-24T12:36:13.989Z,12.60
2023-05-24T12:38:44.299Z,8.45
2023-05-24T13:04:48.953Z,8.95
2023-05-24T13:07:19.543Z,5.85
2023-05-24T13:09:49.956Z,8.90
2023-05-24T13:12:20.361Z,7.70
2023-05-24T13:14:52.865Z,7.27
2023-05-24T13:17:23.635Z,7.53
2023-05-24T13:19:54.376Z,9.97
2023-05-24T13:22:24.773Z,7.35
2023-05-24T13:24:55.699Z,5.73
2023-05-24T13:27:26.631Z,5.28
2023-05-24T13:30:00.928Z,5.47
2023-05-24T13:32:32.136Z,8.23
2023-05-24T13:35:03.239Z,6.43
2023-05-24T13:37:35.417Z,7.00
2023-05-24T13:40:06.772Z,8.25
2023-05-24T13:42:37.597Z,7.88
2023-05-24T13:45:08.891Z,7.20
2023-05-24T13:47:41.226Z,5.70
2023-05-24T13:50:12.593Z,9.27
2023-05-24T13:52:42.999Z,8.77
2023-05-24T13:55:13.497Z,9.48
2023-05-24T13:57:51.676Z,6.57
2023-05-24T14:00:23.067Z,9.45
2023-05-24T14:02:54.218Z,7.65
2023-05-24T14:05:27.786Z,9.35
2023-05-24T14:08:00.526Z,13.35
2023-05-24T14:10:31.062Z,8.40
2023-05-24T14:13:20.587Z,8.93
2023-05-24T14:15:52.162Z,7.57
2023-05-24T14:18:22.873Z,10.43
2023-05-24T14:20:53.537Z,12.13
2023-05-24T14:23:24.107Z,12.00
2023-05-24T14:25:54.677Z,9.67
2023-05-24T14:28:25.177Z,13.43
2023-05-24T14:30:55.523Z,12.52
2023-05-24T14:33:27.212Z,11.10
2023-05-24T14:35:57.712Z,11.80
2023-05-24T14:38:28.327Z,11.80
2023-05-24T14:41:00.567Z,12.17
2023-05-24T14:43:31.111Z,9.23
2023-05-24T14:46:01.635Z,11.93
2023-05-24T14:48:32.143Z,12.47
2023-05-24T14:51:02.405Z,9.93
2023-05-24T14:53:32.788Z,10.55
2023-05-24T14:56:03.622Z,12.20
2023-05-24T14:58:33.958Z,11.57
2023-05-24T15:01:05.525Z,11.43
2023-05-24T15:03:36.032Z,10.57
2023-05-24T15:06:08.004Z,11.25
2023-05-24T15:08:38.395Z,11.05
2023-05-24T15:11:09.051Z,12.33
2023-05-24T15:13:40.862Z,10.43
2023-05-24T15:16:11.664Z,10.70
2023-05-24T15:18:42.068Z,12.32
2023-05-24T15:21:12.560Z,10.50
2023-05-24T15:23:42.823Z,9.83
2023-05-24T15:26:13.588Z,14.05
2023-05-24T15:28:43.841Z,11.93
2023-05-24T15:31:14.206Z,17.17
2023-05-24T15:33:44.633Z,16.83
2023-05-24T15:36:16.793Z,17.70
2023-05-24T15:38:47.349Z,13.65
2023-05-24T15:41:17.880Z,11.00
2023-05-24T15:43:48.398Z,12.95
2023-05-24T15:46:19.031Z,12.23
2023-05-24T15:48:49.678Z,12.80
2023-05-24T15:51:53.600Z,13.10
2023-05-24T15:54:10.312Z,16.80
2023-05-24T15:56:40.617Z,13.87
2023-05-24T15:59:10.921Z,14.05
2023-05-24T16:01:41.344Z,15.40
2023-05-24T16:04:11.831Z,12.87
2023-05-24T16:06:42.232Z,15.47
2023-05-24T16:09:12.540Z,14.10
2023-05-24T16:11:43.277Z,18.92
2023-05-24T16:14:13.884Z,12.57
2023-05-24T16:16:45.096Z,16.97
2023-05-24T16:19:15.667Z,16.17
2023-05-24T16:21:45.969Z,18.13
2023-05-24T16:24:16.321Z,19.80
2023-05-24T16:26:46.688Z,18.27
2023-05-24T16:29:19.150Z,17.63
2023-05-24T16:31:49.645Z,17.02
2023-05-24T16:34:19.890Z,18.87
2023-05-24T16:36:50.321Z,18.50
2023-05-24T16:39:20.762Z,17.73
2023-05-24T16:41:50.994Z,20.97
2023-05-24T16:44:21.412Z,21.65
2023-05-24T16:46:51.705Z,21.90
2023-05-24T16:49:22.074Z,17.57
2023-05-24T16:51:52.250Z,18.42
2023-05-24T16:54:22.637Z,19.17
2023-05-24T16:56:56.176Z,20.20
2023-05-24T16:59:26.434Z,22.55
2023-05-24T17:01:56.857Z,18.90
2023-05-24T17:04:27.424Z,21.47
2023-05-24T17:06:57.766Z,19.33
2023-05-24T17:09:28.184Z,18.67
2023-05-24T17:11:59.619Z,17.93
2023-05-24T17:14:30.545Z,21.88
2023-05-24T17:17:01.071Z,18.42
2023-05-24T17:19:32.395Z,27.30
2023-05-24T17:22:02.859Z,22.52
2023-05-24T17:24:33.276Z,22.43
2023-05-24T17:27:04.418Z,24.95
2023-05-24T17:29:38.557Z,20.85
2023-05-24T17:32:09.103Z,24.30
2023-05-24T17:34:39.644Z,24.83
2023-05-24T17:37:10.047Z,28.43
2023-05-24T17:39:41.233Z,25.23
2023-05-24T17:44:43.992Z,28.63
2023-05-24T17:47:14.344Z,34.03
2023-05-24T17:49:44.486Z,31.23
2023-05-24T17:52:16.981Z,35.85
2023-05-24T17:54:47.343Z,42.13
2023-05-24T17:57:17.496Z,38.08
2023-05-24T17:59:48.377Z,47.57
2023-05-24T18:02:18.642Z,49.60
2023-05-24T18:04:48.974Z,42.95
2023-05-24T18:07:20.847Z,41.77
2023-05-24T18:09:51.502Z,40.08
2023-05-24T18:12:22.035Z,46.30
2023-05-24T18:14:52.776Z,41.77
2023-05-24T18:17:23.486Z,40.22
2023-05-24T18:19:54.018Z,41.92
2023-05-24T18:22:24.382Z,38.57
2023-05-24T18:24:54.683Z,42.67
2023-05-24T18:27:25.052Z,35.22
2023-05-24T18:29:55.497Z,38.73
2023-05-24T18:32:25.972Z,36.33
2023-05-24T18:34:57.415Z,41.53
2023-05-24T18:39:57.527Z,36.00
2023-05-24T18:42:28.104Z,33.88
2023-05-24T18:44:58.844Z,33.28
2023-05-24T18:47:30.145Z,39.50
2023-05-24T18:50:01.988Z,35.80
2023-05-24T18:52:32.333Z,37.38
2023-05-24T18:55:02.797Z,37.00
2023-05-24T18:57:33.780Z,37.70
2023-05-24T19:00:04.085Z,36.95
2023-05-24T19:02:34.534Z,41.40
2023-05-24T19:05:05.459Z,41.37
2023-05-24T19:07:36.998Z,37.00
2023-05-24T19:10:07.843Z,40.60
2023-05-24T19:12:38.097Z,42.00
2023-05-24T19:15:09.626Z,38.30
2023-05-24T19:17:39.833Z,43.42
2023-05-24T19:20:10.575Z,38.57
2023-05-24T19:22:40.949Z,39.67
2023-05-24T19:25:11.553Z,42.23
2023-05-24T19:27:57.854Z,43.90
2023-05-24T19:30:29.582Z,45.10
2023-05-24T19:33:00.069Z,50.67
2023-05-24T19:35:30.536Z,44.20
2023-05-24T19:38:00.877Z,51.38
2023-05-24T19:40:31.242Z,46.93
2023-05-24T19:43:01.717Z,47.87
2023-05-24T19:45:31.947Z,43.93
2023-05-24T19:48:02.653Z,44.77
2023-05-24T19:50:33.475Z,46.80
2023-05-24T19:53:03.991Z,44.28
2023-05-24T19:55:34.928Z,41.63
2023-05-24T20:00:35.470Z,44.60
2023-05-24T20:03:06.427Z,44.95
2023-05-24T20:05:36.745Z,41.30
2023-05-24T20:08:09.091Z,36.92
2023-05-24T20:10:41.345Z,32.72
2023-05-24T20:13:12.872Z,31.08
2023-05-24T20:15:43.521Z,30.27
2023-05-24T20:18:13.996Z,27.80
2023-05-24T20:20:44.432Z,27.27
2023-05-24T20:23:14.618Z,28.65
2023-05-24T20:25:46.521Z,24.05
2023-05-24T20:28:29.604Z,27.77
2023-05-24T20:31:01.366Z,25.25
2023-05-24T20:33:31.753Z,24.90
2023-05-24T20:36:02.142Z,20.90
2023-05-24T20:38:32.699Z,25.37
2023-05-24T20:41:02.881Z,25.27
2023-05-24T20:43:33.051Z,20.50
2023-05-24T20:46:05.604Z,20.98
2023-05-24T20:48:36.046Z,24.58
2023-05-24T20:51:06.466Z,23.73
2023-05-24T20:53:36.998Z,21.27
2023-05-24T20:56:07.450Z,24.30
2023-05-24T20:58:37.868Z,20.20
2023-05-24T21:01:08.642Z,20.02
2023-05-24T21:03:39.230Z,21.30
2023-05-24T21:06:09.791Z,19.83
2023-05-24T21:08:40.940Z,20.87
2023-05-24T21:13:41.191Z,23.85
2023-05-24T21:16:11.644Z,21.30
2023-05-24T21:18:42.032Z,20.15
2023-05-24T21:21:13.399Z,19.53
2023-05-24T21:23:44.111Z,19.85
2023-05-24T21:26:14.272Z,19.63
2023-05-24T21:28:44.371Z,20.88
2023-05-24T21:31:15.121Z,19.75
2023-05-24T21:33:48.187Z,20.23
2023-05-24T21:36:18.534Z,19.02
2023-05-24T21:38:49.475Z,22.50
2023-05-24T21:41:19.772Z,20.95
2023-05-24T21:43:49.927Z,21.40
2023-05-24T21:46:20.301Z,21.17
2023-05-24T21:48:51.145Z,19.77
2023-05-24T21:51:21.479Z,23.77
2023-05-24T21:53:51.904Z,19.52
2023-05-24T21:56:22.291Z,22.83
2023-05-24T21:58:52.793Z,19.50
2023-05-24T22:01:23.480Z,21.13
2023-05-24T22:03:55.138Z,20.58
2023-05-24T22:06:26.365Z,21.55
2023-05-24T22:08:57.990Z,22.48
2023-05-24T22:11:29.050Z,21.05
2023-05-24T22:13:59.261Z,18.27
2023-05-24T22:16:29.727Z,21.60
2023-05-24T22:19:00.276Z,24.47
2023-05-24T22:21:30.645Z,22.57
2023-05-24T22:24:00.725Z,24.37
2023-05-24T22:26:30.921Z,21.30
2023-05-24T22:29:06.730Z,25.07
2023-05-24T22:31:37.291Z,21.90
2023-05-24T22:34:08.542Z,25.70
2023-05-24T22:41:42.383Z,31.75
2023-05-24T22:44:13.614Z,23.83
2023-05-24T22:47:38.687Z,24.40
2023-05-24T22:50:10.327Z,26.50
2023-05-24T22:52:44.793Z,30.58
2023-05-24T22:55:15.399Z,24.98
2023-05-24T22:57:45.614Z,23.47
2023-05-24T23:00:17.538Z,23.87
2023-05-24T23:02:49.296Z,23.52
2023-05-24T23:05:19.874Z,24.13
2023-05-24T23:07:51.755Z,25.42
2023-05-24T23:10:22.173Z,21.67
2023-05-24T23:12:52.891Z,21.53
2023-05-24T23:15:23.299Z,20.27
2023-05-24T23:17:55.200Z,22.30
2023-05-24T23:20:25.954Z,21.13
2023-05-24T23:22:56.471Z,23.20
2023-05-24T23:25:26.717Z,22.03
2023-05-24T23:27:57.298Z,20.48
2023-05-24T23:30:27.930Z,21.92
2023-05-24T23:33:00.192Z,22.88
2023-05-24T23:35:30.688Z,26.90
2023-05-24T23:38:01.216Z,22.53
2023-05-24T23:40:32.490Z,23.30
2023-05-24T23:45:33.075Z,25.77
2023-05-24T23:48:03.819Z,23.55
2023-05-24T23:50:42.864Z,20.48
2023-05-24T23:53:20.784Z,20.63
2023-05-24T23:55:51.140Z,22.43
2023-05-24T23:58:21.671Z,24.07
